Time;durP1;ratioP1;P1;durP2;ratioP2;P2;SDS_P1;SDS_P2;PMS_P1;PMS_P2;Temp;Humidity;BMP_temperature;BMP_pressure;BME280_temperature;BME280_humidity;BME280_pressure;Samples;Min_cycle;Max_cycle;Signal;HPM_P1;HPM_P2
2023/09/19 00:00:46;;;;;;;;;;;18.90;94.30;;;;;;5077939;28;20355;-70
2023/09/19 00:03:12;;;;;;;;;;;18.90;94.30;;;;;;5110456;27;19912;-70
2023/09/19 00:05:38;;;;;;;;;;;18.80;94.40;;;;;;5069430;28;19962;-70
2023/09/19 00:08:04;;;;;;;;;;;18.80;94.60;;;;;;5072214;28;19966;-70
2023/09/19 00:10:34;;;;;;;;;;;18.80;94.50;;;;;;5069691;28;19966;-70
2023/09/19 00:13:05;;;;;;;;;;;18.80;94.30;;;;;;5082054;28;20502;-70
2023/09/19 00:15:33;;;;;;;;;;;18.70;94.40;;;;;;5089432;28;19919;-71
2023/09/19 00:17:58;;;;;;;;;;;18.70;94.50;;;;;;5090032;28;19951;-70
2023/09/19 00:20:24;;;;;;;;;;;18.70;94.20;;;;;;5079742;28;19951;-70
2023/09/19 00:22:51;;;;;;;;;;;18.70;94.30;;;;;;5087551;28;19913;-70
2023/09/19 00:25:17;;;;;;;;;;;18.70;94.60;;;;;;5073493;28;19912;-70
2023/09/19 00:27:44;;;;;;;;;;;18.70;94.60;;;;;;5069502;28;19989;-70
2023/09/19 00:30:15;;;;;;;;;;;18.60;94.30;;;;;;5069643;28;19919;-70
2023/09/19 00:32:44;;;;;;;;;;;18.60;94.40;;;;;;5068753;28;19959;-70
2023/09/19 00:35:10;;;;;;;;;;;18.60;94.50;;;;;;5069338;28;19912;-70
2023/09/19 00:37:36;;;;;;;;;;;18.50;94.30;;;;;;5083806;28;19912;-70
2023/09/19 00:40:03;;;;;;;;;;;18.50;94.30;;;;;;5075516;28;20390;-70
2023/09/19 00:42:30;;;;;;;;;;;18.50;94.60;;;;;;5077635;28;19936;-70
2023/09/19 00:44:55;;;;;;;;;;;18.50;94.20;;;;;;5084432;28;20357;-70
2023/09/19 00:47:21;;;;;;;;;;;18.50;94.60;;;;;;5109872;27;19908;-70
2023/09/19 00:49:52;;;;;;;;;;;18.50;94.30;;;;;;5085677;28;19943;-70
2023/09/19 00:52:21;;;;;;;;;;;18.40;94.70;;;;;;5068937;28;20337;-70
2023/09/19 00:54:47;;;;;;;;;;;18.40;94.70;;;;;;5082882;28;19973;-70
2023/09/19 00:57:15;;;;;;;;;;;18.40;94.60;;;;;;5084169;28;19915;-70
2023/09/19 00:59:42;;;;;;;;;;;18.40;94.70;;;;;;5077752;28;19919;-70
2023/09/19 01:02:07;;;;;;;;;;;18.40;94.50;;;;;;5083509;28;19950;-70
2023/09/19 01:04:33;;;;;;;;;;;18.30;94.40;;;;;;5080261;28;19946;-70
2023/09/19 01:06:59;;;;;;;;;;;18.30;94.50;;;;;;5083827;28;19920;-70
2023/09/19 01:09:24;;;;;;;;;;;18.30;94.40;;;;;;5068473;28;19912;-70
2023/09/19 01:11:53;;;;;;;;;;;18.30;94.30;;;;;;5076272;28;19909;-70
2023/09/19 01:14:24;;;;;;;;;;;18.20;94.30;;;;;;5068351;28;20415;-70
2023/09/19 01:16:59;;;;;;;;;;;18.20;94.40;;;;;;5072649;28;19931;-70
2023/09/19 01:19:24;;;;;;;;;;;18.20;94.60;;;;;;5072057;28;20713;-70
2023/09/19 01:21:50;;;;;;;;;;;18.20;94.50;;;;;;5092820;28;19965;-70
2023/09/19 01:24:22;;;;;;;;;;;18.10;94.40;;;;;;5107090;27;19919;-70
2023/09/19 01:26:47;;;;;;;;;;;18.10;94.40;;;;;;5067998;28;19927;-70
2023/09/19 01:29:29;;;;;;;;;;;18.10;94.50;;;;;;5068119;28;19913;-70
2023/09/19 01:32:01;;;;;;;;;;;18.10;94.40;;;;;;5109629;27;19950;-70
2023/09/19 01:34:26;;;;;;;;;;;18.10;94.40;;;;;;5108569;27;20399;-70
2023/09/19 01:36:52;;;;;;;;;;;18.10;94.50;;;;;;5067996;28;19913;-70
2023/09/19 01:39:19;;;;;;;;;;;18.10;94.20;;;;;;5067689;28;19916;-70
2023/09/19 01:41:45;;;;;;;;;;;18.10;94.50;;;;;;5075555;28;19913;-70
2023/09/19 01:44:22;;;;;;;;;;;18.10;94.40;;;;;;5099299;27;19978;-70
2023/09/19 01:46:47;;;;;;;;;;;18.00;94.70;;;;;;5076121;28;20344;-70
2023/09/19 01:49:29;;;;;;;;;;;18.10;94.50;;;;;;5076439;28;19959;-70
2023/09/19 01:52:13;;;;;;;;;;;18.00;94.40;;;;;;5068013;28;19923;-70
2023/09/19 01:54:51;;;;;;;;;;;18.00;94.50;;;;;;5075548;28;19960;-70
2023/09/19 01:57:20;;;;;;;;;;;17.90;94.10;;;;;;5067944;28;19916;-70
2023/09/19 01:59:59;;;;;;;;;;;17.90;94.50;;;;;;5067464;28;20425;-69
2023/09/19 02:02:25;;;;;;;;;;;17.90;94.40;;;;;;5067556;28;19919;-70
2023/09/19 02:04:50;;;;;;;;;;;17.90;94.50;;;;;;5079667;28;19996;-70
2023/09/19 02:07:16;;;;;;;;;;;17.90;94.20;;;;;;5081686;28;19908;-70
2023/09/19 02:09:42;;;;;;;;;;;17.90;94.40;;;;;;5084700;28;19912;-70
2023/09/19 02:12:11;;;;;;;;;;;17.90;94.20;;;;;;5107936;27;19958;-70
2023/09/19 02:14:36;;;;;;;;;;;17.90;94.40;;;;;;5076979;28;19912;-70
2023/09/19 02:17:11;;;;;;;;;;;17.90;94.10;;;;;;5073927;28;19922;-70
2023/09/19 02:19:38;;;;;;;;;;;17.80;94.30;;;;;;5065757;28;20505;-70
2023/09/19 02:22:07;;;;;;;;;;;17.80;94.30;;;;;;5067311;28;19912;-70
2023/09/19 02:24:33;;;;;;;;;;;17.80;94.10;;;;;;5073272;28;20253;-70
2023/09/19 02:27:01;;;;;;;;;;;17.80;94.20;;;;;;5076933;28;19928;-70
2023/09/19 02:29:29;;;;;;;;;;;17.70;94.10;;;;;;5081456;28;19916;-70
2023/09/19 02:31:55;;;;;;;;;;;17.70;94.40;;;;;;5078817;28;19952;-70
2023/09/19 02:34:21;;;;;;;;;;;17.80;94.40;;;;;;5086038;28;19947;-70
2023/09/19 02:36:47;;;;;;;;;;;17.80;94.50;;;;;;5065809;28;20554;-70
2023/09/19 02:39:13;;;;;;;;;;;17.70;93.90;;;;;;5070320;28;19915;-70
2023/09/19 02:41:38;;;;;;;;;;;17.70;94.30;;;;;;5108178;27;20414;-70
2023/09/19 02:44:07;;;;;;;;;;;17.70;94.30;;;;;;5066860;28;19913;-70
2023/09/19 02:46:33;;;;;;;;;;;17.70;94.10;;;;;;5065348;28;19939;-70
2023/09/19 02:48:59;;;;;;;;;;;17.60;94.20;;;;;;5072191;28;19962;-70
2023/09/19 02:51:24;;;;;;;;;;;17.60;94.20;;;;;;5086977;28;19921;-70
2023/09/19 02:53:52;;;;;;;;;;;17.60;94.30;;;;;;5078563;28;19916;-70
2023/09/19 02:56:18;;;;;;;;;;;17.60;94.30;;;;;;5081414;28;20269;-70
2023/09/19 02:58:44;;;;;;;;;;;17.60;94.30;;;;;;5089959;28;19916;-70
2023/09/19 03:01:11;;;;;;;;;;;17.60;94.30;;;;;;5076445;28;19932;-70
2023/09/19 03:03:38;;;;;;;;;;;17.60;94.30;;;;;;5070433;28;19916;-70
2023/09/19 03:06:05;;;;;;;;;;;17.60;94.30;;;;;;5070931;28;19917;-70
2023/09/19 03:08:32;;;;;;;;;;;17.60;94.20;;;;;;5070472;28;19951;-70
2023/09/19 03:10:58;;;;;;;;;;;17.60;93.80;;;;;;5075148;28;19911;-70
2023/09/19 03:13:24;;;;;;;;;;;17.50;94.10;;;;;;5082541;28;19984;-70
2023/09/19 03:15:50;;;;;;;;;;;17.50;93.70;;;;;;5090813;28;19912;-70
2023/09/19 03:18:15;;;;;;;;;;;17.50;94.30;;;;;;5082608;28;20368;-70
2023/09/19 03:20:41;;;;;;;;;;;17.50;94.20;;;;;;5104064;27;19912;-70
2023/09/19 03:23:08;;;;;;;;;;;17.50;94.10;;;;;;5074517;28;19919;-70
2023/09/19 03:25:34;;;;;;;;;;;17.50;94.10;;;;;;5084082;28;19912;-70
2023/09/19 03:28:00;;;;;;;;;;;17.50;94.00;;;;;;5070725;28;20011;-70
2023/09/19 03:30:26;;;;;;;;;;;17.50;94.30;;;;;;5069879;28;19908;-70
2023/09/19 03:32:52;;;;;;;;;;;17.40;93.60;;;;;;5085971;28;19915;-70
2023/09/19 03:35:17;;;;;;;;;;;17.40;94.20;;;;;;5093886;27;19912;-70
2023/09/19 03:37:43;;;;;;;;;;;17.50;94.10;;;;;;5081205;28;20638;-70
2023/09/19 03:40:10;;;;;;;;;;;17.40;93.90;;;;;;5078584;28;19916;-70
2023/09/19 03:42:39;;;;;;;;;;;17.40;94.00;;;;;;5078324;28;19909;-70
2023/09/19 03:45:06;;;;;;;;;;;17.40;93.90;;;;;;5068325;28;19934;-70
2023/09/19 03:47:31;;;;;;;;;;;17.40;94.20;;;;;;5069894;28;20479;-70
2023/09/19 03:49:57;;;;;;;;;;;17.40;94.00;;;;;;5070022;28;19913;-70
2023/09/19 03:52:22;;;;;;;;;;;17.30;94.00;;;;;;5069993;28;20011;-70
2023/09/19 03:54:48;;;;;;;;;;;17.30;94.00;;;;;;5090605;28;19965;-70
2023/09/19 03:57:17;;;;;;;;;;;17.40;94.00;;;;;;5101939;28;19916;-70
2023/09/19 03:59:46;;;;;;;;;;;17.30;93.90;;;;;;5087228;28;19919;-70
2023/09/19 04:02:21;;;;;;;;;;;17.30;94.20;;;;;;5069905;28;19913;-70
2023/09/19 04:04:56;;;;;;;;;;;17.30;93.90;;;;;;5078070;28;19919;-70
2023/09/19 04:07:22;;;;;;;;;;;17.30;94.10;;;;;;5071921;28;19913;-70
2023/09/19 04:09:48;;;;;;;;;;;17.20;94.10;;;;;;5089097;28;19999;-70
2023/09/19 04:12:16;;;;;;;;;;;17.30;94.00;;;;;;5082797;28;19920;-70
2023/09/19 04:14:42;;;;;;;;;;;17.20;93.50;;;;;;5068777;28;19989;-70
2023/09/19 04:17:07;;;;;;;;;;;17.30;94.10;;;;;;5069695;28;19913;-70
2023/09/19 04:19:33;;;;;;;;;;;17.20;93.90;;;;;;5103926;27;19972;-70
2023/09/19 04:21:59;;;;;;;;;;;17.20;94.00;;;;;;5096904;28;19999;-70
2023/09/19 04:24:24;;;;;;;;;;;17.20;94.00;;;;;;5089213;28;19951;-70
2023/09/19 04:26:50;;;;;;;;;;;17.20;94.00;;;;;;5088573;28;19958;-70
2023/09/19 04:29:15;;;;;;;;;;;17.20;94.00;;;;;;5096443;28;19912;-70
2023/09/19 04:31:43;;;;;;;;;;;17.20;94.00;;;;;;5098542;28;20570;-70
2023/09/19 04:34:10;;;;;;;;;;;17.20;94.00;;;;;;5088918;28;20003;-70
2023/09/19 04:36:36;;;;;;;;;;;17.10;94.00;;;;;;5087061;28;20625;-70
2023/09/19 04:39:04;;;;;;;;;;;17.10;94.10;;;;;;5076490;28;19912;-70
2023/09/19 04:41:30;;;;;;;;;;;17.10;93.60;;;;;;5085321;28;19923;-70
2023/09/19 04:43:56;;;;;;;;;;;17.10;94.10;;;;;;5088290;28;20417;-70
2023/09/19 04:46:21;;;;;;;;;;;17.10;94.00;;;;;;5088569;28;20376;-70
2023/09/19 04:48:47;;;;;;;;;;;17.10;93.70;;;;;;5089166;28;19913;-70
2023/09/19 04:51:13;;;;;;;;;;;17.10;94.00;;;;;;5088208;28;19912;-70
2023/09/19 04:53:39;;;;;;;;;;;17.10;93.70;;;;;;5087500;28;19922;-70
2023/09/19 04:56:07;;;;;;;;;;;17.00;93.90;;;;;;5087126;28;19920;-70
2023/09/19 04:58:33;;;;;;;;;;;17.00;94.20;;;;;;5087527;28;19957;-70
2023/09/19 05:00:59;;;;;;;;;;;17.00;94.00;;;;;;5087008;28;19916;-70
2023/09/19 05:03:25;;;;;;;;;;;17.00;93.90;;;;;;5088240;28;19965;-70
2023/09/19 05:05:50;;;;;;;;;;;17.00;93.90;;;;;;5096721;28;19916;-70
2023/09/19 05:08:16;;;;;;;;;;;17.00;94.00;;;;;;5080256;28;19908;-70
2023/09/19 05:10:41;;;;;;;;;;;17.00;94.00;;;;;;5079886;28;19912;-70
2023/09/19 05:13:10;;;;;;;;;;;17.00;93.90;;;;;;5091282;28;19916;-70
2023/09/19 05:15:35;;;;;;;;;;;17.00;93.90;;;;;;5103687;27;19916;-70
2023/09/19 05:18:01;;;;;;;;;;;17.00;94.00;;;;;;5088724;28;20423;-70
2023/09/19 05:20:30;;;;;;;;;;;17.00;93.90;;;;;;5091470;28;19988;-70
2023/09/19 05:23:03;;;;;;;;;;;17.00;93.80;;;;;;5081591;28;20249;-70
2023/09/19 05:25:32;;;;;;;;;;;16.90;93.60;;;;;;5087915;28;20044;-70
2023/09/19 05:28:03;;;;;;;;;;;16.90;93.90;;;;;;5092103;28;19919;-70
2023/09/19 05:30:29;;;;;;;;;;;16.90;93.80;;;;;;5071163;28;19944;-70
2023/09/19 05:32:55;;;;;;;;;;;16.90;93.50;;;;;;5079777;28;19955;-70
2023/09/19 05:35:21;;;;;;;;;;;16.90;93.90;;;;;;5096566;28;19908;-70
2023/09/19 05:37:50;;;;;;;;;;;16.90;93.90;;;;;;5075518;28;20014;-70
2023/09/19 05:40:16;;;;;;;;;;;16.90;94.00;;;;;;5088041;28;19974;-70
2023/09/19 05:42:43;;;;;;;;;;;16.90;93.70;;;;;;5087518;28;19943;-70
2023/09/19 05:45:12;;;;;;;;;;;16.90;93.60;;;;;;5087787;28;19923;-70
2023/09/19 05:47:45;;;;;;;;;;;16.90;93.90;;;;;;5087800;28;19956;-70
2023/09/19 05:50:11;;;;;;;;;;;16.90;93.70;;;;;;5081776;28;20210;-70
2023/09/19 05:52:37;;;;;;;;;;;16.90;93.80;;;;;;5077107;28;19920;-70
2023/09/19 05:55:07;;;;;;;;;;;16.80;93.90;;;;;;5082563;28;19912;-70
2023/09/19 05:57:35;;;;;;;;;;;16.80;93.80;;;;;;5075798;28;20385;-70
2023/09/19 06:00:01;;;;;;;;;;;16.90;93.80;;;;;;5071921;28;20324;-70
2023/09/19 06:02:28;;;;;;;;;;;16.90;93.80;;;;;;5087828;28;19965;-70
2023/09/19 06:04:55;;;;;;;;;;;16.90;93.80;;;;;;5079317;28;19912;-70
2023/09/19 06:07:22;;;;;;;;;;;16.80;93.80;;;;;;5087836;28;20343;-70
2023/09/19 06:09:47;;;;;;;;;;;16.90;93.60;;;;;;5088559;28;20071;-70
2023/09/19 06:12:15;;;;;;;;;;;16.90;93.90;;;;;;5101231;28;19912;-70
2023/09/19 06:14:41;;;;;;;;;;;16.80;93.70;;;;;;5110207;27;19912;-70
2023/09/19 06:17:06;;;;;;;;;;;16.80;93.30;;;;;;5080977;28;19912;-70
2023/09/19 06:19:32;;;;;;;;;;;16.90;93.80;;;;;;5074508;28;19912;-70
2023/09/19 06:21:59;;;;;;;;;;;16.90;93.50;;;;;;5067244;28;19959;-70
2023/09/19 06:24:25;;;;;;;;;;;16.80;93.80;;;;;;5075720;28;19919;-70
2023/09/19 06:26:52;;;;;;;;;;;16.90;93.70;;;;;;5083713;28;19959;-70
2023/09/19 06:29:18;;;;;;;;;;;16.90;93.60;;;;;;5082253;28;19946;-70
2023/09/19 06:31:44;;;;;;;;;;;16.90;93.70;;;;;;5086823;28;20349;-70
2023/09/19 06:34:10;;;;;;;;;;;16.90;93.70;;;;;;5086745;28;19916;-70
2023/09/19 06:36:35;;;;;;;;;;;16.90;93.70;;;;;;5092746;28;19912;-70
2023/09/19 06:39:04;;;;;;;;;;;16.90;93.70;;;;;;5075092;28;19923;-70
2023/09/19 06:41:30;;;;;;;;;;;16.90;93.70;;;;;;5066964;28;19960;-70
2023/09/19 06:43:55;;;;;;;;;;;16.90;93.60;;;;;;5066675;28;19912;-70
2023/09/19 06:46:21;;;;;;;;;;;16.90;93.50;;;;;;5083617;28;19912;-70
2023/09/19 06:48:47;;;;;;;;;;;16.90;93.70;;;;;;5101708;28;20411;-70
2023/09/19 06:51:15;;;;;;;;;;;17.00;93.60;;;;;;5087250;28;19911;-70
2023/09/19 06:53:41;;;;;;;;;;;17.00;93.50;;;;;;5079873;28;20379;-70
2023/09/19 06:56:07;;;;;;;;;;;17.00;93.50;;;;;;5100524;28;20027;-69
2023/09/19 06:58:32;;;;;;;;;;;17.00;93.70;;;;;;5089903;28;19913;-70
2023/09/19 07:00:58;;;;;;;;;;;17.00;93.70;;;;;;5081392;28;20583;-70
2023/09/19 07:03:26;;;;;;;;;;;17.00;93.60;;;;;;5066631;28;19945;-70
2023/09/19 07:05:52;;;;;;;;;;;17.00;93.50;;;;;;5066748;28;20501;-70
2023/09/19 07:08:18;;;;;;;;;;;17.10;93.60;;;;;;5075325;28;19951;-70
2023/09/19 07:10:54;;;;;;;;;;;17.00;93.40;;;;;;5068014;28;20003;-70
2023/09/19 07:13:19;;;;;;;;;;;17.00;93.40;;;;;;5097664;28;20400;-70
2023/09/19 07:15:49;;;;;;;;;;;17.10;93.60;;;;;;5098334;28;19947;-70
2023/09/19 07:18:16;;;;;;;;;;;17.10;93.50;;;;;;5098847;28;19916;-70
2023/09/19 07:20:48;;;;;;;;;;;17.10;93.50;;;;;;5089973;28;20555;-70
2023/09/19 07:23:21;;;;;;;;;;;17.10;93.50;;;;;;5083689;28;20238;-70
2023/09/19 07:25:48;;;;;;;;;;;17.10;93.30;;;;;;5090767;28;19922;-70
2023/09/19 07:28:14;;;;;;;;;;;17.10;93.50;;;;;;5065398;28;19917;-70
2023/09/19 07:30:41;;;;;;;;;;;17.10;93.40;;;;;;5066145;28;19912;-70
2023/09/19 07:33:07;;;;;;;;;;;17.20;93.30;;;;;;5088333;28;19923;-70
2023/09/19 07:35:33;;;;;;;;;;;17.10;93.40;;;;;;5095234;28;19912;-70
2023/09/19 07:38:01;;;;;;;;;;;17.20;93.50;;;;;;5094071;28;19916;-70
2023/09/19 07:40:28;;;;;;;;;;;17.20;93.40;;;;;;5078506;28;20594;-70
2023/09/19 07:42:55;;;;;;;;;;;17.20;93.40;;;;;;5080829;28;19912;-70
2023/09/19 07:45:20;;;;;;;;;;;17.20;93.40;;;;;;5090091;28;19911;-70
2023/09/19 07:47:46;;;;;;;;;;;17.20;93.40;;;;;;5087696;28;20003;-70
2023/09/19 07:50:16;;;;;;;;;;;17.20;93.30;;;;;;5070016;28;19913;-70
2023/09/19 07:52:42;;;;;;;;;;;17.20;93.40;;;;;;5070259;28;19919;-70
2023/09/19 07:55:09;;;;;;;;;;;17.30;93.20;;;;;;5091526;28;20312;-70
2023/09/19 07:57:37;;;;;;;;;;;17.30;93.30;;;;;;5094128;28;20003;-70
2023/09/19 08:00:07;;;;;;;;;;;17.30;93.30;;;;;;5109443;27;19913;-70
2023/09/19 08:02:37;;;;;;;;;;;17.30;93.30;;;;;;5086694;28;19944;-70
2023/09/19 08:05:06;;;;;;;;;;;17.40;93.20;;;;;;5089698;28;20272;-70
2023/09/19 08:07:36;;;;;;;;;;;17.30;93.30;;;;;;5094695;28;19951;-70
2023/09/19 08:10:02;;;;;;;;;;;17.40;93.30;;;;;;5088911;28;19963;-70
2023/09/19 08:12:28;;;;;;;;;;;17.40;93.10;;;;;;5081588;28;19916;-70
2023/09/19 08:14:55;;;;;;;;;;;17.40;93.10;;;;;;5072197;28;19918;-70
2023/09/19 08:17:22;;;;;;;;;;;17.40;93.20;;;;;;5089538;28;20477;-70
2023/09/19 08:19:49;;;;;;;;;;;17.40;93.10;;;;;;5095282;28;20451;-70
2023/09/19 08:22:17;;;;;;;;;;;17.50;93.10;;;;;;5092318;28;19919;-70
2023/09/19 08:24:42;;;;;;;;;;;17.40;93.20;;;;;;5086495;28;19919;-70
2023/09/19 08:27:10;;;;;;;;;;;17.50;93.10;;;;;;5082049;28;19929;-70
2023/09/19 08:29:35;;;;;;;;;;;17.50;93.20;;;;;;5089082;28;19969;-70
2023/09/19 08:32:01;;;;;;;;;;;17.60;93.00;;;;;;5084832;28;19916;-70
2023/09/19 08:34:26;;;;;;;;;;;17.60;93.10;;;;;;5088780;28;19912;-70
2023/09/19 08:36:56;;;;;;;;;;;17.50;92.90;;;;;;5089599;28;19915;-70
2023/09/19 08:39:22;;;;;;;;;;;17.50;93.10;;;;;;5086525;28;20003;-70
2023/09/19 08:41:47;;;;;;;;;;;17.50;93.10;;;;;;5089347;28;19954;-70
2023/09/19 08:44:13;;;;;;;;;;;17.60;93.20;;;;;;5089360;28;19963;-70
2023/09/19 08:46:43;;;;;;;;;;;17.60;92.90;;;;;;5085338;28;19916;-70
2023/09/19 08:49:13;;;;;;;;;;;17.70;92.90;;;;;;5088333;28;19912;-70
2023/09/19 08:51:50;;;;;;;;;;;17.70;92.80;;;;;;5087628;28;20547;-70
2023/09/19 08:54:22;;;;;;;;;;;17.70;92.90;;;;;;5085898;28;19916;-70
2023/09/19 08:56:47;;;;;;;;;;;17.80;92.90;;;;;;5084598;28;19919;-70
2023/09/19 08:59:14;;;;;;;;;;;17.80;92.90;;;;;;5086129;28;19912;-70
2023/09/19 09:01:41;;;;;;;;;;;17.90;92.60;;;;;;5085796;28;19970;-70
2023/09/19 09:04:12;;;;;;;;;;;17.90;92.60;;;;;;5087467;28;19912;-70
2023/09/19 09:06:39;;;;;;;;;;;17.90;92.80;;;;;;5089849;28;19912;-70
2023/09/19 09:09:05;;;;;;;;;;;17.90;92.70;;;;;;5087823;28;19912;-70
2023/09/19 09:11:34;;;;;;;;;;;18.00;92.70;;;;;;5085845;28;20206;-70
2023/09/19 09:13:59;;;;;;;;;;;18.00;92.60;;;;;;5087008;28;19920;-70
2023/09/19 09:16:25;;;;;;;;;;;18.00;92.50;;;;;;5087357;28;19935;-70
2023/09/19 09:18:52;;;;;;;;;;;18.00;92.60;;;;;;5085760;28;19916;-70
2023/09/19 09:21:18;;;;;;;;;;;18.10;92.50;;;;;;5083170;28;20344;-70
2023/09/19 09:23:43;;;;;;;;;;;18.10;92.60;;;;;;5086608;28;19916;-70
2023/09/19 09:26:09;;;;;;;;;;;18.00;92.30;;;;;;5085942;28;19924;-70
2023/09/19 09:28:38;;;;;;;;;;;18.10;92.50;;;;;;5083916;28;19912;-70
2023/09/19 09:31:09;;;;;;;;;;;18.20;92.30;;;;;;5088043;28;19998;-70
2023/09/19 09:33:35;;;;;;;;;;;18.20;92.50;;;;;;5086465;28;20250;-70
2023/09/19 09:36:02;;;;;;;;;;;18.20;92.30;;;;;;5118346;27;19919;-70
2023/09/19 09:38:43;;;;;;;;;;;18.20;92.30;;;;;;5083891;28;20258;-70
2023/09/19 09:41:09;;;;;;;;;;;18.20;92.30;;;;;;5086788;28;19968;-70
2023/09/19 09:43:36;;;;;;;;;;;18.30;92.30;;;;;;5086557;28;20006;-70
2023/09/19 09:51:39;;;;;;;;;;;18.30;91.90;;;;;;5085342;28;19961;-70
2023/09/19 09:54:18;;;;;;;;;;;18.40;91.80;;;;;;5086200;28;19920;-70
2023/09/19 09:56:54;;;;;;;;;;;18.30;91.80;;;;;;5083259;28;19920;-70
2023/09/19 09:59:27;;;;;;;;;;;18.40;91.90;;;;;;5086773;28;19919;-70
2023/09/19 10:01:53;;;;;;;;;;;18.30;91.50;;;;;;5086255;28;19912;-70
2023/09/19 10:04:36;;;;;;;;;;;18.40;92.00;;;;;;5086047;28;19908;-70
2023/09/19 10:07:05;;;;;;;;;;;18.40;91.60;;;;;;5085785;28;19968;-70
2023/09/19 10:09:44;;;;;;;;;;;18.40;92.00;;;;;;5086511;28;20352;-70
2023/09/19 10:12:11;;;;;;;;;;;18.50;91.90;;;;;;5089338;28;19954;-70
2023/09/19 10:14:38;;;;;;;;;;;18.50;91.90;;;;;;5087172;28;19912;-70
2023/09/19 10:17:09;;;;;;;;;;;18.50;91.80;;;;;;5083398;28;19912;-70
2023/09/19 10:19:50;;;;;;;;;;;18.50;91.90;;;;;;5084729;28;19922;-70
2023/09/19 10:22:16;;;;;;;;;;;18.60;91.40;;;;;;5116260;27;20016;-70
2023/09/19 10:24:44;;;;;;;;;;;18.60;91.70;;;;;;5084241;28;21027;-70
2023/09/19 10:27:11;;;;;;;;;;;18.60;91.70;;;;;;5080965;28;20019;-70
2023/09/19 10:29:39;;;;;;;;;;;18.60;91.40;;;;;;5073557;28;20406;-70
2023/09/19 10:32:05;;;;;;;;;;;18.50;91.40;;;;;;5086249;28;19927;-70
2023/09/19 10:34:34;;;;;;;;;;;18.60;91.30;;;;;;5086031;28;20375;-70
2023/09/19 10:37:05;;;;;;;;;;;18.60;91.80;;;;;;5087962;28;19980;-70
2023/09/19 10:39:32;;;;;;;;;;;18.70;91.50;;;;;;5086277;28;19947;-70
2023/09/19 10:42:02;;;;;;;;;;;18.80;91.20;;;;;;5083223;28;19912;-70
2023/09/19 10:44:29;;;;;;;;;;;18.70;91.50;;;;;;5086056;28;19940;-70
2023/09/19 10:46:55;;;;;;;;;;;18.80;91.30;;;;;;5085625;28;20360;-70
2023/09/19 10:49:22;;;;;;;;;;;18.70;91.20;;;;;;5087947;28;20401;-70
2023/09/19 10:51:49;;;;;;;;;;;18.80;91.60;;;;;;5082390;28;19912;-70
2023/09/19 10:54:17;;;;;;;;;;;18.90;91.00;;;;;;5084980;28;19915;-70
2023/09/19 10:56:48;;;;;;;;;;;18.90;91.00;;;;;;5084500;28;19919;-70
2023/09/19 10:59:21;;;;;;;;;;;19.00;91.30;;;;;;5086010;28;20028;-70
2023/09/19 11:01:47;;;;;;;;;;;19.00;91.20;;;;;;5087197;28;20377;-70
2023/09/19 11:04:23;;;;;;;;;;;19.00;91.00;;;;;;5085876;28;19912;-70
2023/09/19 11:07:03;;;;;;;;;;;19.10;91.00;;;;;;5085527;28;19916;-70
2023/09/19 11:09:47;;;;;;;;;;;19.10;90.90;;;;;;5084252;28;19912;-69
2023/09/19 11:15:07;;;;;;;;;;;19.10;90.90;;;;;;5079881;28;19934;-70
2023/09/19 11:17:33;;;;;;;;;;;19.20;90.90;;;;;;5085289;28;19915;-70
2023/09/19 11:28:05;;;;;;;;;;;19.30;91.10;;;;;;5082411;28;19928;-70
2023/09/19 11:30:40;;;;;;;;;;;19.40;91.10;;;;;;5085552;28;19919;-70
2023/09/19 11:33:16;;;;;;;;;;;19.40;91.00;;;;;;5081872;28;19958;-70
2023/09/19 11:36:01;;;;;;;;;;;19.50;91.20;;;;;;5078624;28;19924;-70
2023/09/19 11:38:42;;;;;;;;;;;19.50;90.90;;;;;;5082812;28;19908;-70
2023/09/19 11:41:31;;;;;;;;;;;19.50;90.70;;;;;;5070275;28;19959;-70
2023/09/19 11:44:05;;;;;;;;;;;19.60;90.70;;;;;;5079202;28;20296;-70
2023/09/19 11:46:32;;;;;;;;;;;19.50;90.60;;;;;;5084741;28;19958;-70
2023/09/19 11:49:09;;;;;;;;;;;19.50;90.70;;;;;;5087539;28;20365;-70
2023/09/19 11:51:40;;;;;;;;;;;19.60;90.80;;;;;;5086305;28;20408;-70
2023/09/19 11:54:13;;;;;;;;;;;19.70;90.10;;;;;;5087746;28;19916;-70
2023/09/19 11:56:40;;;;;;;;;;;19.70;90.30;;;;;;5088467;28;19916;-70
2023/09/19 11:59:08;;;;;;;;;;;19.70;90.00;;;;;;5089465;28;19939;-70
2023/09/19 12:01:34;;;;;;;;;;;19.80;90.10;;;;;;5100678;28;19911;-70
2023/09/19 12:04:01;;;;;;;;;;;19.80;90.30;;;;;;5093731;28;19947;-70
2023/09/19 12:06:29;;;;;;;;;;;19.80;90.20;;;;;;5085744;28;20439;-70
2023/09/19 12:08:55;;;;;;;;;;;19.90;90.20;;;;;;5089226;28;19993;-70
2023/09/19 12:11:22;;;;;;;;;;;19.90;89.90;;;;;;5089416;28;19955;-70
2023/09/19 12:13:53;;;;;;;;;;;20.00;89.60;;;;;;5087167;28;19916;-70
2023/09/19 12:16:21;;;;;;;;;;;20.00;89.70;;;;;;5087899;28;19908;-70
2023/09/19 12:18:47;;;;;;;;;;;20.10;89.50;;;;;;5087453;28;19924;-70
2023/09/19 12:21:27;;;;;;;;;;;20.10;88.80;;;;;;5103800;28;20006;-70
2023/09/19 12:23:58;;;;;;;;;;;20.00;88.60;;;;;;5090008;28;19912;-70
2023/09/19 12:26:24;;;;;;;;;;;20.10;89.70;;;;;;5089956;28;19943;-70
2023/09/19 12:28:52;;;;;;;;;;;20.10;89.40;;;;;;5101662;27;20380;-70
2023/09/19 12:31:19;;;;;;;;;;;20.10;89.80;;;;;;5101040;28;19919;-70
2023/09/19 12:33:53;;;;;;;;;;;20.10;89.80;;;;;;5084969;28;20324;-70
2023/09/19 12:36:32;;;;;;;;;;;20.20;90.00;;;;;;5074925;28;20314;-70
2023/09/19 12:39:08;;;;;;;;;;;20.20;90.10;;;;;;5071622;28;19913;-70
2023/09/19 12:41:34;;;;;;;;;;;20.20;89.30;;;;;;5101436;27;20037;-70
2023/09/19 12:44:00;;;;;;;;;;;20.30;88.90;;;;;;5107289;28;20654;-70
2023/09/19 12:46:26;;;;;;;;;;;20.30;89.30;;;;;;5092969;28;19965;-70
2023/09/19 12:49:12;;;;;;;;;;;20.40;87.50;;;;;;5088429;28;19912;-70
2023/09/19 12:51:37;;;;;;;;;;;20.40;88.50;;;;;;5073027;28;19912;-70
2023/09/19 12:54:05;;;;;;;;;;;20.40;89.50;;;;;;5095799;28;19912;-70
2023/09/19 12:56:39;;;;;;;;;;;20.50;88.60;;;;;;5088407;28;19951;-70
2023/09/19 12:59:06;;;;;;;;;;;20.60;88.20;;;;;;5089381;28;19919;-70
2023/09/19 13:01:32;;;;;;;;;;;20.60;88.20;;;;;;5079861;28;19912;-70
2023/09/19 13:04:12;;;;;;;;;;;20.60;87.30;;;;;;5087715;28;20052;-70
2023/09/19 13:06:43;;;;;;;;;;;20.70;88.00;;;;;;5087339;28;19919;-70
2023/09/19 13:09:11;;;;;;;;;;;20.70;86.60;;;;;;5088167;28;19912;-70
2023/09/19 13:11:42;;;;;;;;;;;20.80;88.50;;;;;;5086970;28;20045;-70
2023/09/19 13:14:13;;;;;;;;;;;20.80;88.60;;;;;;5088438;28;20353;-70
2023/09/19 13:16:55;;;;;;;;;;;20.90;88.00;;;;;;5088484;28;19923;-70
2023/09/19 13:19:39;;;;;;;;;;;20.90;89.90;;;;;;5070966;28;19973;-70
2023/09/19 13:22:05;;;;;;;;;;;20.90;87.90;;;;;;5080801;28;19912;-70
2023/09/19 13:24:33;;;;;;;;;;;21.00;86.40;;;;;;5087258;28;19919;-70
2023/09/19 13:27:00;;;;;;;;;;;21.00;88.90;;;;;;5078532;28;19920;-70
2023/09/19 13:29:25;;;;;;;;;;;21.00;86.70;;;;;;5096142;28;19927;-70
2023/09/19 13:31:55;;;;;;;;;;;21.00;88.80;;;;;;5086497;28;20433;-71
2023/09/19 13:34:23;;;;;;;;;;;21.00;87.60;;;;;;5093320;28;20220;-70
2023/09/19 13:36:48;;;;;;;;;;;21.10;88.50;;;;;;5073571;28;20515;-70
2023/09/19 13:39:17;;;;;;;;;;;21.10;89.70;;;;;;5085800;28;19915;-70
2023/09/19 13:41:49;;;;;;;;;;;21.10;89.70;;;;;;5089863;28;20341;-70
2023/09/19 13:44:16;;;;;;;;;;;21.10;88.40;;;;;;5087766;28;19919;-70
2023/09/19 13:46:45;;;;;;;;;;;21.10;88.40;;;;;;5071038;28;19919;-70
2023/09/19 13:49:11;;;;;;;;;;;21.20;87.30;;;;;;5087432;28;19912;-70
2023/09/19 13:51:37;;;;;;;;;;;21.20;87.10;;;;;;5088121;28;19931;-71
2023/09/19 13:54:02;;;;;;;;;;;21.20;88.30;;;;;;5083830;28;19916;-70
2023/09/19 13:56:28;;;;;;;;;;;21.30;87.60;;;;;;5082751;28;20345;-70
2023/09/19 13:58:54;;;;;;;;;;;21.30;86.50;;;;;;5094551;28;19988;-70
2023/09/19 14:01:20;;;;;;;;;;;21.30;87.30;;;;;;5088605;28;19931;-70
2023/09/19 14:03:49;;;;;;;;;;;21.30;86.10;;;;;;5081340;28;19999;-70
2023/09/19 14:06:15;;;;;;;;;;;21.30;85.60;;;;;;5083646;28;19918;-70
2023/09/19 14:08:41;;;;;;;;;;;21.30;86.00;;;;;;5079304;28;20524;-70
2023/09/19 14:11:07;;;;;;;;;;;21.30;87.40;;;;;;5083424;28;19912;-70
2023/09/19 14:13:32;;;;;;;;;;;21.30;86.80;;;;;;5075920;28;20332;-70
2023/09/19 14:16:04;;;;;;;;;;;21.30;87.50;;;;;;5111343;27;19969;-70
2023/09/19 14:18:29;;;;;;;;;;;21.20;86.80;;;;;;5087766;28;19942;-70
2023/09/19 14:20:55;;;;;;;;;;;21.30;86.70;;;;;;5079210;28;19980;-70
2023/09/19 14:23:20;;;;;;;;;;;21.30;86.30;;;;;;5079598;28;20386;-70
2023/09/19 14:25:46;;;;;;;;;;;21.20;86.60;;;;;;5077601;28;20031;-70
2023/09/19 14:28:12;;;;;;;;;;;21.20;86.60;;;;;;5081114;28;20592;-71
2023/09/19 14:30:38;;;;;;;;;;;21.20;86.50;;;;;;5078476;28;19966;-70
2023/09/19 14:33:04;;;;;;;;;;;21.20;86.20;;;;;;5099590;28;19913;-70
2023/09/19 14:35:30;;;;;;;;;;;21.20;86.90;;;;;;5067363;28;20399;-70
2023/09/19 14:37:55;;;;;;;;;;;21.10;86.80;;;;;;5086233;28;19948;-70